Ada, Kansas
Current Conditions -  °F | °C
As of 8:53 PM on Wednesday 26 Nov 2014 (Local Time) from KSLN Reporting Station
Clear Clear  
Wind Chill: 17°   Ceiling: Unl
Heat Index: 27°   Visibility: 10mi
Dew Point: 19°   Wind: 10mph
Humidity: 72%   Direction: 300°WNW
Pressure: 30.43"   Gusts: NA
Location:  39.1542°N, 97.5941°W
Report Text: KSLN 270253Z 30009KT 10SM CLR M03/M07 A3043 RMK AO2 SLP315 T10281072 51026
Loading
Personal Weather Stations






























Interactive Weather Map New forecast layout! Learn more

10-Day Weather Forecast

Advertisements
Track Severe Weather on mobile